Terminal Aerodrome Forecast
Issued by NWS Mobile, AL

Home | Current Version | Previous Version | Text Only | Print | Product List | Glossary On
Versions: 1 2 3 4 5 6 7 8 9 10 11 12 13 14 15 16 17 18 19 20 21 22 23 24 25 26 27 28 29 30 31 32 33 34 35 36 37 38
000
FTUS44 KMOB 230523
TAFPNS
TAF
KPNS 230523Z 2306/2406 VRB03KT P6SM BKN021 BKN027 BKN035
      TEMPO 2306/2307 BKN021
     FM230900 11002KT 5SM BR BKN050
     FM231200 16004KT P6SM SCT250
     FM231800 17009KT P6SM SCT250
     FM231900 VRB10G20KT 5SM -TSRA BKN050CB OVC250
     FM232200 19006KT P6SM SCT060 BKN080 BKN100=

USA.gov is the U.S. government's official web portal to all federal, state and local government web resources and services.